Time;durP1;ratioP1;P1;durP2;ratioP2;P2;SDS_P1;SDS_P2;PMS_P1;PMS_P2;Temp;Humidity;BMP_temperature;BMP_pressure;BME280_temperature;BME280_humidity;BME280_pressure;Samples;Min_cycle;Max_cycle;Signal;HPM_P1;HPM_P2
2021/11/22 00:00:38;;;;;;;15.20;12.70;;;;;;;6.77;56.17;100111.08;117283;1186;23008;-50
2021/11/22 00:03:07;;;;;;;28.70;12.60;;;;;;;6.76;56.14;100111.61;117349;1185;23608;-74
2021/11/22 00:05:35;;;;;;;26.40;12.80;;;;;;;6.74;56.28;100110.91;117418;1186;21857;-49
2021/11/22 00:08:06;;;;;;;21.20;13.70;;;;;;;6.66;56.30;100112.98;117451;1182;23548;-49
2021/11/22 00:10:36;;;;;;;25.80;15.10;;;;;;;6.63;56.35;100113.70;117448;1176;23580;-75
2021/11/22 00:13:05;;;;;;;32.40;19.00;;;;;;;6.60;56.28;100111.80;117209;1182;24175;-75
2021/11/22 00:15:34;;;;;;;37.60;21.90;;;;;;;6.60;56.25;100110.21;117359;1185;23011;-49
2021/11/22 00:18:02;;;;;;;61.80;18.70;;;;;;;6.63;56.25;100112.66;117326;1185;23152;-49
2021/11/22 00:20:31;;;;;;;52.60;18.00;;;;;;;6.64;56.30;100109.52;117299;1182;23521;-50
2021/11/22 00:22:59;;;;;;;45.40;14.90;;;;;;;6.64;56.09;100109.15;117343;1186;21863;-50
2021/11/22 00:25:28;;;;;;;55.80;13.30;;;;;;;6.66;56.33;100108.46;117258;1185;24216;-74
2021/11/22 00:28:03;;;;;;;43.20;13.10;;;;;;;6.67;56.47;100103.05;117360;1186;23448;-51
2021/11/22 00:30:32;;;;;;;43.90;10.00;;;;;;;6.64;56.27;100111.25;117516;1176;23277;-50
2021/11/22 00:33:02;;;;;;;25.90;10.00;;;;;;;6.60;56.47;100114.05;117320;1185;23550;-74
2021/11/22 00:35:33;;;;;;;23.10;9.80;;;;;;;6.56;56.41;100120.15;117250;1179;22927;-50
2021/11/22 00:38:04;;;;;;;15.60;8.80;;;;;;;6.52;56.27;100124.33;117288;1186;22037;-50
2021/11/22 00:40:34;;;;;;;20.60;9.20;;;;;;;6.48;56.34;100126.42;117430;1186;22982;-74
2021/11/22 00:43:04;;;;;;;26.40;9.00;;;;;;;6.46;56.41;100123.63;117438;1182;23613;-50
2021/11/22 00:45:32;;;;;;;23.90;8.70;;;;;;;6.40;56.15;100121.89;117428;1180;21867;-50
2021/11/22 00:48:01;;;;;;;23.20;9.40;;;;;;;6.36;56.27;100121.89;117406;1185;21857;-50
2021/11/22 00:50:30;;;;;;;30.00;9.40;;;;;;;6.35;56.31;100119.63;117307;1182;21863;-50
2021/11/22 00:53:01;;;;;;;21.90;9.60;;;;;;;6.36;56.41;100117.52;117335;1182;23553;-73
2021/11/22 00:55:31;;;;;;;29.20;10.70;;;;;;;6.35;56.26;100117.36;117308;1182;22895;-73
2021/11/22 00:57:59;;;;;;;20.90;10.30;;;;;;;6.32;56.33;100117.35;117421;1183;24168;-73
2021/11/22 01:00:29;;;;;;;31.70;11.70;;;;;;;6.31;56.25;100115.43;117463;1183;21862;-50
2021/11/22 01:02:57;;;;;;;21.70;10.90;;;;;;;6.31;56.19;100113.34;117333;1183;21852;-71
2021/11/22 01:05:26;;;;;;;26.40;11.10;;;;;;;6.33;56.36;100116.32;117422;1184;21901;-71
2021/11/22 01:07:54;;;;;;;30.70;11.90;;;;;;;6.34;56.51;100115.61;117497;1184;21855;-50
2021/11/22 01:10:23;;;;;;;27.50;11.10;;;;;;;6.38;56.30;100115.27;117312;1186;23510;-50
2021/11/22 01:12:51;;;;;;;35.10;12.80;;;;;;;6.43;56.43;100115.09;117407;1176;21865;-50
2021/11/22 01:15:21;;;;;;;33.50;11.70;;;;;;;6.47;56.41;100114.91;117437;1185;21880;-50
2021/11/22 01:17:50;;;;;;;21.10;11.70;;;;;;;6.49;56.53;100107.42;117145;1185;22624;-50
2021/11/22 01:20:21;;;;;;;23.10;11.80;;;;;;;6.52;56.47;100109.52;117452;1182;23474;-71
2021/11/22 01:22:49;;;;;;;15.90;11.40;;;;;;;6.53;56.49;100107.95;117298;1185;21845;-51
2021/11/22 01:25:17;;;;;;;24.40;12.30;;;;;;;6.54;56.42;100106.02;117341;1183;23580;-50
2021/11/22 01:27:47;;;;;;;14.40;8.80;;;;;;;6.55;56.57;100105.69;117366;1186;22909;-70
2021/11/22 01:30:16;;;;;;;11.80;10.40;;;;;;;6.55;56.62;100107.95;117440;1182;23485;-71
2021/11/22 01:32:45;;;;;;;28.50;11.70;;;;;;;6.55;56.64;100108.64;117347;1186;21854;-70
2021/11/22 01:35:14;;;;;;;28.20;12.20;;;;;;;6.55;56.51;100105.16;117324;1182;23564;-50
2021/11/22 01:37:42;;;;;;;28.40;11.60;;;;;;;6.56;56.67;100103.77;117312;1185;23746;-70
2021/11/22 01:40:12;;;;;;;23.00;12.60;;;;;;;6.59;56.71;100101.14;117413;1182;22951;-70
2021/11/22 01:42:41;;;;;;;32.70;13.60;;;;;;;6.60;56.65;100101.33;117441;1185;22799;-50
2021/11/22 01:45:11;;;;;;;25.70;12.70;;;;;;;6.61;56.56;100097.32;117366;1186;21891;-50
2021/11/22 01:47:40;;;;;;;22.40;12.40;;;;;;;6.62;56.62;100097.31;117331;1186;21867;-70
2021/11/22 01:50:09;;;;;;;21.90;12.90;;;;;;;6.60;56.72;100100.29;117413;1183;23013;-70
2021/11/22 01:52:40;;;;;;;33.60;12.30;;;;;;;6.58;56.56;100103.23;117361;1183;21829;-70
2021/11/22 01:55:10;;;;;;;24.10;12.00;;;;;;;6.56;56.75;100104.80;117158;1185;21976;-50
2021/11/22 01:57:42;;;;;;;18.00;12.40;;;;;;;6.53;56.50;100100.10;117340;1186;21876;-70
2021/11/22 02:00:16;;;;;;;21.90;12.50;;;;;;;6.52;56.57;100099.41;117242;1186;23074;-70
2021/11/22 02:02:45;;;;;;;15.10;11.30;;;;;;;6.51;56.58;100100.45;117363;1182;22715;-50
2021/11/22 02:05:13;;;;;;;22.20;12.20;;;;;;;6.52;56.54;100097.66;117349;1179;21852;-49
2021/11/22 02:07:42;;;;;;;15.50;11.80;;;;;;;6.52;56.69;100097.84;117429;1185;21850;-67
2021/11/22 02:10:10;;;;;;;29.20;12.70;;;;;;;6.52;56.70;100097.66;117361;1182;23577;-50
2021/11/22 02:12:39;;;;;;;24.90;13.10;;;;;;;6.53;56.73;100094.87;117308;1186;21863;-69
2021/11/22 02:15:08;;;;;;;36.00;13.50;;;;;;;6.58;56.78;100095.05;117394;1186;21966;-69
2021/11/22 02:17:39;;;;;;;18.80;11.40;;;;;;;6.61;56.69;100096.27;117423;1185;21895;-50
2021/11/22 02:20:10;;;;;;;27.50;13.00;;;;;;;6.65;56.78;100097.48;117458;1182;22753;-50
2021/11/22 02:22:38;;;;;;;32.70;13.70;;;;;;;6.67;56.70;100093.64;117380;1182;22927;-50
2021/11/22 02:25:08;;;;;;;49.30;14.40;;;;;;;6.71;56.63;100090.51;117316;1183;24709;-50
2021/11/22 02:27:37;;;;;;;32.10;13.50;;;;;;;6.73;56.98;100088.58;117492;1185;22879;-50
2021/11/22 02:30:07;;;;;;;37.90;14.10;;;;;;;6.76;56.65;100089.45;117373;1182;22799;-50
2021/11/22 02:32:37;;;;;;;37.40;13.30;;;;;;;6.79;56.99;100084.92;117393;1176;22035;-56
2021/11/22 02:35:07;;;;;;;36.30;15.30;;;;;;;6.83;56.79;100090.84;117324;1182;23379;-50
2021/11/22 02:37:36;;;;;;;46.70;15.60;;;;;;;6.86;56.76;100088.38;117381;1182;22536;-68
2021/11/22 02:40:05;;;;;;;38.80;16.20;;;;;;;6.88;56.88;100085.23;117155;1185;23560;-52
2021/11/22 02:42:35;;;;;;;52.90;16.00;;;;;;;6.93;57.09;100087.67;117362;1176;23587;-50
2021/11/22 02:45:03;;;;;;;40.20;16.00;;;;;;;6.98;56.92;100084.00;117354;1185;21851;-68
2021/11/22 02:47:33;;;;;;;52.20;15.70;;;;;;;7.03;56.94;100082.61;117464;1183;22932;-68
2021/11/22 02:50:01;;;;;;;57.80;18.30;;;;;;;7.06;56.98;100085.02;117439;1183;21858;-68
2021/11/22 02:52:30;;;;;;;84.50;16.60;;;;;;;7.09;57.08;100082.92;117359;1182;23184;-50
2021/11/22 02:54:58;;;;;;;69.50;16.10;;;;;;;7.13;57.23;100082.73;117209;1186;21855;-50
2021/11/22 02:57:27;;;;;;;112.10;16.00;;;;;;;7.16;57.18;100080.98;117369;1182;23451;-68
2021/11/22 02:59:55;;;;;;;49.10;15.20;;;;;;;7.18;57.00;100082.55;117324;1182;23557;-68
2021/11/22 03:02:25;;;;;;;35.00;13.20;;;;;;;7.19;56.91;100076.10;117389;1176;23458;-68
2021/11/22 03:04:55;;;;;;;52.30;14.90;;;;;;;7.19;56.91;100076.98;117320;1176;24158;-68
2021/11/22 03:07:23;;;;;;;65.30;15.20;;;;;;;7.16;56.90;100074.70;117304;1182;21860;-68
2021/11/22 03:09:52;;;;;;;61.10;15.40;;;;;;;7.15;57.05;100077.50;117367;1186;23500;-50
2021/11/22 03:12:20;;;;;;;51.00;13.70;;;;;;;7.13;56.96;100082.92;117057;1188;23606;-68
2021/11/22 03:14:49;;;;;;;57.10;13.10;;;;;;;7.10;57.00;100086.23;117197;1182;22808;-50
2021/11/22 03:17:18;;;;;;;60.90;12.70;;;;;;;7.07;56.99;100088.17;117283;1184;21857;-51
2021/11/22 03:19:47;;;;;;;49.40;12.70;;;;;;;7.05;57.05;100090.63;117301;1185;21948;-50
2021/11/22 03:22:15;;;;;;;56.30;12.60;;;;;;;7.05;57.13;100087.48;117292;1183;21860;-51
2021/11/22 03:24:45;;;;;;;72.70;14.80;;;;;;;7.05;56.95;100089.40;117319;1184;23449;-50
2021/11/22 03:27:13;;;;;;;56.90;12.20;;;;;;;7.05;57.01;100090.27;117275;1185;21860;-50
2021/11/22 03:29:41;;;;;;;58.00;12.60;;;;;;;7.05;57.02;100093.77;117318;1182;24035;-68
2021/11/22 03:32:10;;;;;;;86.50;13.90;;;;;;;7.05;57.34;100097.08;117266;1185;23563;-68
2021/11/22 03:34:38;;;;;;;72.40;13.50;;;;;;;7.05;56.91;100097.09;117308;1182;22640;-68
2021/11/22 03:37:07;;;;;;;73.80;12.50;;;;;;;7.05;56.97;100101.97;117290;1185;23467;-68
2021/11/22 03:39:36;;;;;;;67.20;13.50;;;;;;;7.03;57.06;100099.01;117367;1186;22922;-50
2021/11/22 03:42:07;;;;;;;65.80;12.80;;;;;;;6.99;56.95;100106.16;117338;1185;22973;-56
2021/11/22 03:44:37;;;;;;;40.90;12.70;;;;;;;7.00;57.04;100104.41;117407;1184;21937;-50
2021/11/22 03:47:05;;;;;;;42.50;12.60;;;;;;;7.00;57.21;100104.77;117332;1182;23451;-50
2021/11/22 03:49:34;;;;;;;34.40;13.20;;;;;;;7.00;57.02;100103.71;117354;1185;24158;-50
2021/11/22 03:52:03;;;;;;;91.80;13.60;;;;;;;7.02;57.11;100104.41;117289;1184;22081;-50
2021/11/22 03:54:31;;;;;;;47.70;14.00;;;;;;;7.03;56.89;100104.41;117291;1186;21858;-68
2021/11/22 03:57:00;;;;;;;44.40;13.20;;;;;;;7.03;57.24;100106.69;117335;1186;22637;-50
2021/11/22 03:59:29;;;;;;;49.40;13.70;;;;;;;7.02;57.23;100105.63;117399;1185;23310;-50
2021/11/22 04:01:57;;;;;;;86.20;14.70;;;;;;;7.01;56.97;100110.86;117335;1185;23602;-68
2021/11/22 04:04:26;;;;;;;49.40;14.60;;;;;;;6.99;57.18;100110.88;117260;1186;23437;-49
2021/11/22 04:06:55;;;;;;;80.80;14.30;;;;;;;7.02;57.16;100111.75;117282;1182;21854;-50
2021/11/22 04:09:24;;;;;;;75.00;16.30;;;;;;;7.03;57.07;100110.52;117498;1185;24187;-68
2021/11/22 04:11:53;;;;;;;51.10;14.30;;;;;;;7.05;57.17;100112.44;117404;1186;23547;-50
2021/11/22 04:14:21;;;;;;;30.60;12.60;;;;;;;7.08;57.20;100114.52;117490;1179;23474;-50
2021/11/22 04:16:50;;;;;;;61.60;15.30;;;;;;;7.08;56.95;100116.59;117543;1186;22868;-51
2021/11/22 04:19:19;;;;;;;35.40;14.80;;;;;;;7.07;57.11;100122.54;117438;1185;21882;-66
2021/11/22 04:21:47;;;;;;;67.90;15.00;;;;;;;7.07;57.20;100123.77;117287;1182;22648;-68
2021/11/22 04:24:15;;;;;;;66.40;15.60;;;;;;;7.09;57.25;100120.95;117360;1183;21864;-68
2021/11/22 04:26:44;;;;;;;41.70;15.30;;;;;;;7.12;57.25;100127.94;117124;1185;21845;-67
2021/11/22 04:29:12;;;;;;;35.70;14.70;;;;;;;7.17;57.30;100127.39;117371;1182;23448;-67
2021/11/22 04:31:40;;;;;;;65.30;16.60;;;;;;;7.21;57.20;100128.61;117322;1182;23464;-50
2021/11/22 04:34:09;;;;;;;124.40;16.40;;;;;;;7.24;57.16;100132.63;117357;1185;21957;-50
2021/11/22 04:36:38;;;;;;;45.30;15.60;;;;;;;7.28;57.25;100128.78;117345;1186;21865;-51
2021/11/22 04:39:06;;;;;;;95.70;15.10;;;;;;;7.30;57.41;100131.04;117557;1185;21897;-53
2021/11/22 04:41:36;;;;;;;33.30;14.60;;;;;;;7.33;57.22;100134.34;117389;1186;21864;-50
2021/11/22 04:44:05;;;;;;;66.90;15.40;;;;;;;7.33;57.28;100139.39;117393;1186;22648;-51
2021/11/22 04:46:33;;;;;;;53.50;14.20;;;;;;;7.33;57.30;100138.00;117445;1179;23596;-64
2021/11/22 04:49:02;;;;;;;41.80;14.20;;;;;;;7.34;57.40;100139.92;117468;1183;23478;-65
2021/11/22 04:51:30;;;;;;;45.00;15.50;;;;;;;7.33;57.17;100141.67;117334;1182;23448;-51
2021/11/22 04:53:58;;;;;;;53.40;15.90;;;;;;;7.34;57.14;100137.13;117314;1182;23451;-65
2021/11/22 04:56:27;;;;;;;41.90;15.80;;;;;;;7.34;57.31;100141.31;117392;1182;23451;-49
2021/11/22 04:58:55;;;;;;;28.40;16.00;;;;;;;7.38;57.17;100139.23;117333;1183;23461;-49
2021/11/22 05:01:23;;;;;;;25.70;16.60;;;;;;;7.42;57.20;100141.30;117509;1182;23484;-66
2021/11/22 05:03:58;;;;;;;27.90;16.00;;;;;;;7.50;57.26;100143.91;119471;1184;21833;-65
2021/11/22 05:06:26;;;;;;;24.60;17.40;;;;;;;7.56;57.40;100148.58;118626;1176;23490;-51
2021/11/22 05:08:54;;;;;;;43.00;15.70;;;;;;;7.63;57.41;100150.84;117466;1185;23471;-49
2021/11/22 05:11:23;;;;;;;25.10;16.70;;;;;;;7.62;57.23;100151.17;117344;1182;23580;-66
2021/11/22 05:13:51;;;;;;;56.00;18.30;;;;;;;7.63;57.33;100154.50;117369;1185;24130;-65
2021/11/22 05:16:20;;;;;;;28.20;17.40;;;;;;;7.70;57.17;100158.31;117425;1179;22619;-50
2021/11/22 05:18:50;;;;;;;54.10;18.50;;;;;;;7.68;57.08;100164.44;117366;1185;21853;-50
2021/11/22 05:21:19;;;;;;;33.60;17.10;;;;;;;7.71;57.27;100165.30;117331;1185;21854;-65
2021/11/22 05:23:49;;;;;;;27.90;15.90;;;;;;;7.68;57.30;100166.19;117476;1176;22982;-66
2021/11/22 05:26:17;;;;;;;44.00;18.00;;;;;;;7.66;57.40;100173.52;117367;1182;23644;-66
2021/11/22 05:28:45;;;;;;;48.50;16.60;;;;;;;7.66;57.24;100172.66;117416;1179;21898;-49
2021/11/22 05:31:14;;;;;;;35.00;16.30;;;;;;;7.64;57.23;100177.38;117410;1182;24161;-65
2021/11/22 05:33:43;;;;;;;41.00;17.00;;;;;;;7.62;57.17;100177.38;117292;1185;21855;-65
2021/11/22 05:36:11;;;;;;;29.20;16.30;;;;;;;7.61;57.18;100178.27;117404;1184;21861;-49
2021/11/22 05:38:39;;;;;;;32.00;15.90;;;;;;;7.61;57.37;100178.95;117441;1182;21863;-51
2021/11/22 05:41:07;;;;;;;34.30;16.20;;;;;;;7.65;57.31;100178.05;117277;1185;23470;-65
2021/11/22 05:43:36;;;;;;;47.50;17.60;;;;;;;7.65;57.31;100180.69;117404;1185;22091;-65
2021/11/22 05:46:04;;;;;;;30.40;16.20;;;;;;;7.66;57.21;100181.38;117388;1182;22329;-50
2021/11/22 05:48:32;;;;;;;43.20;16.40;;;;;;;7.68;57.32;100183.13;117271;1185;22481;-50
2021/11/22 05:51:01;;;;;;;27.40;17.00;;;;;;;7.70;57.34;100183.48;117286;1182;21858;-51
2021/11/22 05:53:33;;;;;;;25.90;17.10;;;;;;;7.75;57.22;100189.38;117339;1182;22959;-65
2021/11/22 05:56:05;;;;;;;48.80;15.60;;;;;;;7.81;57.26;100195.65;117369;1182;22921;-51
2021/11/22 05:58:34;;;;;;;35.00;15.90;;;;;;;7.81;57.37;100196.17;117364;1185;22505;-50
2021/11/22 06:01:04;;;;;;;26.30;16.80;;;;;;;7.82;57.37;100200.18;117340;1176;21852;-50
2021/11/22 06:03:32;;;;;;;23.70;16.10;;;;;;;7.84;57.32;100206.30;117313;1185;21852;-51
2021/11/22 06:06:01;;;;;;;44.50;17.40;;;;;;;7.87;57.47;100208.55;117467;1182;23467;-50
2021/11/22 06:08:29;;;;;;;43.60;16.50;;;;;;;7.91;57.55;100214.14;117534;1182;23478;-65
2021/11/22 06:10:57;;;;;;;31.90;18.50;;;;;;;7.94;57.42;100217.27;117328;1182;22615;-51
2021/11/22 06:13:26;;;;;;;26.10;18.00;;;;;;;7.98;57.42;100220.21;117295;1182;24156;-50
2021/11/22 06:15:55;;;;;;;34.40;16.20;;;;;;;8.01;57.49;100218.98;117450;1182;22523;-65
2021/11/22 06:18:24;;;;;;;20.90;16.00;;;;;;;8.03;57.44;100222.80;117320;1185;21858;-51
2021/11/22 06:20:52;;;;;;;69.30;14.60;;;;;;;8.04;57.45;100226.83;117347;1185;21915;-65
2021/11/22 06:23:21;;;;;;;60.40;15.80;;;;;;;8.07;57.45;100224.20;117318;1184;23951;-51
2021/11/22 06:25:49;;;;;;;27.30;16.20;;;;;;;8.09;57.54;100227.69;117290;1182;21855;-51
2021/11/22 06:28:19;;;;;;;25.10;15.30;;;;;;;8.13;57.35;100231.16;117234;1182;23476;-50
2021/11/22 06:30:48;;;;;;;80.10;17.10;;;;;;;8.19;57.49;100236.02;117296;1183;23475;-66
2021/11/22 06:33:16;;;;;;;25.10;15.50;;;;;;;8.24;57.48;100232.50;117323;1182;23522;-51
2021/11/22 06:35:45;;;;;;;24.20;14.80;;;;;;;8.27;57.58;100235.80;117368;1182;23586;-51
2021/11/22 06:38:14;;;;;;;36.00;14.70;;;;;;;8.30;57.48;100236.67;117339;1185;21855;-50
2021/11/22 06:40:42;;;;;;;25.80;14.30;;;;;;;8.32;57.32;100234.55;117473;1182;21863;-66
2021/11/22 06:43:11;;;;;;;24.80;15.30;;;;;;;8.36;57.45;100235.08;117297;1183;23554;-50
2021/11/22 06:45:39;;;;;;;31.30;15.40;;;;;;;8.38;57.53;100232.62;117364;1185;22602;-66
2021/11/22 06:48:08;;;;;;;29.30;15.50;;;;;;;8.42;57.65;100235.73;117417;1183;23448;-50
2021/11/22 06:50:36;;;;;;;30.90;15.40;;;;;;;8.50;57.65;100236.92;117623;1176;23170;-50
2021/11/22 06:53:05;;;;;;;21.50;14.70;;;;;;;8.58;57.69;100240.39;117635;1183;24156;-65
2021/11/22 06:55:33;;;;;;;19.50;14.90;;;;;;;8.66;57.72;100241.39;117458;1182;21881;-51
2021/11/22 06:58:02;;;;;;;18.20;14.10;;;;;;;8.74;57.83;100240.98;117369;1182;22491;-51
2021/11/22 07:00:30;;;;;;;29.90;16.20;;;;;;;8.83;57.74;100242.51;117267;1185;21861;-51
2021/11/22 07:02:59;;;;;;;22.70;16.40;;;;;;;8.89;57.85;100241.92;117365;1186;23471;-51
2021/11/22 07:05:29;;;;;;;20.40;15.60;;;;;;;8.99;57.85;100233.80;117399;1185;21931;-51
2021/11/22 07:07:58;;;;;;;20.30;15.30;;;;;;;9.09;57.89;100233.71;117285;1185;21961;-50
2021/11/22 07:10:27;;;;;;;19.50;14.70;;;;;;;9.18;57.83;100233.29;117354;1182;22587;-66
2021/11/22 07:12:55;;;;;;;92.50;17.90;;;;;;;9.27;57.98;100231.45;117281;1185;21964;-66
2021/11/22 07:15:24;;;;;;;21.90;15.50;;;;;;;9.32;57.84;100231.93;117365;1185;23484;-52
2021/11/22 07:17:52;;;;;;;42.90;16.40;;;;;;;9.37;57.94;100230.14;117421;1185;23089;-51
2021/11/22 07:20:21;;;;;;;22.50;16.20;;;;;;;9.40;57.82;100234.14;117318;1182;22792;-66
2021/11/22 07:22:49;;;;;;;20.50;15.50;;;;;;;9.39;57.75;100235.02;117346;1182;23635;-66
2021/11/22 07:25:17;;;;;;;24.10;14.30;;;;;;;9.44;57.72;100232.17;117291;1185;23468;-66
2021/11/22 07:27:47;;;;;;;21.00;15.30;;;;;;;9.53;57.79;100235.40;117353;1182;23349;-66
2021/11/22 07:30:19;;;;;;;24.10;16.80;;;;;;;9.67;58.05;100236.50;117309;1185;23658;-52
2021/11/22 07:32:54;;;;;;;28.10;17.00;;;;;;;9.79;58.10;100234.24;117301;1186;21847;-52
2021/11/22 07:35:22;;;;;;;34.70;16.80;;;;;;;9.85;57.92;100233.83;117315;1185;23886;-51
2021/11/22 07:37:51;;;;;;;24.40;17.20;;;;;;;9.88;57.95;100231.16;117380;1182;24165;-66
2021/11/22 07:40:21;;;;;;;46.40;17.40;;;;;;;9.95;57.97;100241.25;117351;1185;22121;-52
2021/11/22 07:42:50;;;;;;;;;;;;;;;9.96;57.80;100237.73;117282;1182;24156;-51
2021/11/22 07:45:23;;;;;;;78.20;17.00;;;;;;;9.92;57.67;100242.52;117484;1183;22616;-52
2021/11/22 07:47:51;;;;;;;84.10;17.00;;;;;;;9.85;57.49;100249.25;117362;1176;21857;-68
2021/11/22 07:50:21;;;;;;;24.50;15.30;;;;;;;9.85;57.73;100247.68;117366;1185;21858;-52
2021/11/22 07:52:50;;;;;;;51.70;14.90;;;;;;;9.85;57.72;100246.28;117385;1183;21860;-68
2021/11/22 07:55:21;;;;;;;27.60;15.10;;;;;;;9.87;57.72;100249.93;117269;1185;24143;-68
2021/11/22 07:57:53;;;;;;;40.50;14.90;;;;;;;9.87;57.69;100251.33;117314;1186;22193;-65
2021/11/22 08:00:22;;;;;;;48.80;14.30;;;;;;;9.86;57.59;100250.83;117346;1182;22912;-54
2021/11/22 08:02:50;;;;;;;18.70;12.80;;;;;;;9.87;57.62;100248.70;117457;1185;22925;-63
2021/11/22 08:05:22;;;;;;;29.80;13.20;;;;;;;9.89;57.65;100251.84;117384;1185;23449;-65
2021/11/22 08:07:54;;;;;;;24.10;13.40;;;;;;;9.91;57.87;100251.48;117345;1182;22941;-69
2021/11/22 08:10:28;;;;;;;19.60;12.80;;;;;;;9.95;57.84;100250.37;117266;1185;21858;-69
2021/11/22 08:12:59;;;;;;;15.80;13.00;;;;;;;10.00;57.81;100251.02;117285;1185;21974;-52
2021/11/22 08:15:29;;;;;;;17.80;13.20;;;;;;;10.04;57.86;100250.44;117349;1183;23091;-52
2021/11/22 08:17:59;;;;;;;16.40;12.20;;;;;;;10.11;57.90;100246.15;117350;1176;22915;-51
2021/11/22 08:20:28;;;;;;;17.70;13.60;;;;;;;10.18;58.04;100249.73;117344;1185;21859;-68
2021/11/22 08:22:58;;;;;;;18.70;13.30;;;;;;;10.22;57.97;100249.15;117668;1185;23468;-69
2021/11/22 08:25:31;;;;;;;14.60;12.20;;;;;;;10.28;57.81;100251.20;117358;1182;21858;-52
2021/11/22 08:27:59;;;;;;;15.90;11.90;;;;;;;10.33;57.90;100251.66;117351;1183;23715;-69
2021/11/22 08:30:28;;;;;;;16.10;12.80;;;;;;;10.43;58.09;100243.12;117332;1183;23593;-70
2021/11/22 08:32:57;;;;;;;17.50;13.30;;;;;;;10.55;58.18;100244.18;117356;1185;21882;-69
2021/11/22 08:35:25;;;;;;;17.20;13.00;;;;;;;10.67;58.26;100243.31;117276;1185;22231;-69
2021/11/22 08:37:53;;;;;;;17.20;12.30;;;;;;;10.77;58.16;100242.98;117359;1183;22956;-52
2021/11/22 08:40:22;;;;;;;32.20;12.80;;;;;;;10.87;58.19;100243.02;117306;1186;23468;-52
2021/11/22 08:42:51;;;;;;;15.60;12.50;;;;;;;10.90;57.98;100240.85;117435;1185;22659;-51
2021/11/22 08:45:19;;;;;;;17.80;13.70;;;;;;;10.92;57.95;100240.13;117392;1183;23484;-69
2021/11/22 08:47:47;;;;;;;17.10;12.60;;;;;;;10.92;57.82;100238.73;117385;1185;23600;-69
2021/11/22 08:50:15;;;;;;;15.30;12.80;;;;;;;10.86;57.64;100242.84;117423;1182;22496;-52
2021/11/22 08:52:44;;;;;;;59.30;12.80;;;;;;;10.74;57.61;100245.48;117278;1182;23414;-51
2021/11/22 08:55:18;;;;;;;21.60;12.00;;;;;;;10.65;57.50;100249.65;117356;1183;22628;-52
2021/11/22 08:57:47;;;;;;;17.70;12.20;;;;;;;10.57;57.66;100252.41;117362;1185;21858;-60
2021/11/22 09:00:18;;;;;;;21.20;12.20;;;;;;;10.52;57.61;100257.23;117456;1183;22642;-51
2021/11/22 09:02:47;;;;;;;15.90;11.60;;;;;;;10.43;57.69;100263.99;117418;1185;24155;-51
2021/11/22 09:05:17;;;;;;;14.80;11.50;;;;;;;10.42;57.70;100267.52;117266;1182;23503;-51
2021/11/22 09:07:45;;;;;;;14.00;11.70;;;;;;;10.46;57.88;100268.35;117344;1180;21880;-51
2021/11/22 09:10:14;;;;;;;15.20;11.50;;;;;;;10.51;57.80;100270.22;117287;1185;21888;-67
2021/11/22 09:12:44;;;;;;;15.20;11.30;;;;;;;10.58;57.92;100267.65;117325;1185;23698;-66
2021/11/22 09:15:13;;;;;;;20.70;11.40;;;;;;;10.65;58.00;100267.90;117373;1182;23478;-51
2021/11/22 09:17:41;;;;;;;19.80;13.40;;;;;;;10.68;57.97;100264.52;117291;1185;21867;-53
2021/11/22 09:20:10;;;;;;;28.30;12.10;;;;;;;10.65;57.79;100264.91;117360;1185;23456;-67
2021/11/22 09:22:38;;;;;;;18.90;13.00;;;;;;;10.58;57.60;100265.39;117512;1185;23452;-51
2021/11/22 09:25:07;;;;;;;14.90;12.70;;;;;;;10.49;57.60;100265.85;117369;1183;22932;-52
2021/11/22 09:27:37;;;;;;;16.00;12.90;;;;;;;10.40;57.57;100270.86;117419;1176;21871;-51
2021/11/22 09:30:06;;;;;;;16.10;12.60;;;;;;;10.38;57.69;100271.06;117430;1182;24152;-66
2021/11/22 09:32:37;;;;;;;17.10;13.80;;;;;;;10.38;57.73;100264.20;117421;1184;21865;-67
2021/11/22 09:35:05;;;;;;;15.20;12.60;;;;;;;10.40;57.75;100264.90;117441;1185;23475;-66
2021/11/22 09:37:34;;;;;;;24.60;14.60;;;;;;;10.43;57.89;100260.49;117408;1182;23451;-67
2021/11/22 09:40:04;;;;;;;16.20;13.20;;;;;;;10.49;57.86;100257.61;117434;1185;22162;-51
2021/11/22 09:42:32;;;;;;;18.90;14.80;;;;;;;10.55;57.96;100259.80;117340;1185;21891;-67
2021/11/22 09:45:01;;;;;;;20.00;15.80;;;;;;;10.61;57.90;100261.65;117329;1185;23519;-66
2021/11/22 09:47:31;;;;;;;23.70;15.50;;;;;;;10.64;57.89;100259.31;117347;1176;23554;-66
2021/11/22 09:50:02;;;;;;;19.50;15.70;;;;;;;10.70;58.07;100258.17;117313;1185;21859;-52
2021/11/22 09:52:30;;;;;;;;;;;;;;;10.79;58.01;100259.29;117419;1176;21841;-51
2021/11/22 09:55:02;;;;;;;20.10;14.40;;;;;;;10.79;57.80;100256.13;117277;1182;21863;-53
2021/11/22 09:57:31;;;;;;;23.20;14.30;;;;;;;10.76;57.78;100256.18;117372;1182;23452;-50
2021/11/22 10:00:08;;;;;;;26.90;16.70;;;;;;;10.75;57.97;100253.19;117256;1185;22941;-72
2021/11/22 10:02:48;;;;;;;25.50;16.80;;;;;;;10.77;58.04;100254.05;117335;1182;21859;-50
2021/11/22 10:05:30;;;;;;;27.80;18.20;;;;;;;10.76;57.97;100257.92;117353;1182;21855;-51
2021/11/22 10:08:15;;;;;;;25.90;16.90;;;;;;;10.74;57.93;100261.45;117432;1182;21901;-72
2021/11/22 10:10:49;;;;;;;26.70;18.20;;;;;;;10.75;58.01;100262.16;117414;1183;24225;-67
2021/11/22 10:13:31;;;;;;;22.00;16.60;;;;;;;10.76;58.07;100263.54;117402;1185;23470;-70
2021/11/22 10:16:01;;;;;;;;;;;;;;;10.76;58.07;100267.41;117349;1182;23459;-72
2021/11/22 10:18:31;;;;;;;21.50;17.20;;;;;;;10.74;57.94;100269.89;117106;1185;21876;-50
2021/11/22 10:21:10;;;;;;;23.00;17.90;;;;;;;10.71;57.86;100269.05;117302;1185;21891;-71
2021/11/22 10:23:40;;;;;;;23.10;18.10;;;;;;;10.71;57.86;100267.30;117383;1182;23556;-51
2021/11/22 10:26:10;;;;;;;22.50;18.50;;;;;;;10.78;58.03;100272.48;117365;1185;23465;-52
2021/11/22 10:28:44;;;;;;;21.70;16.90;;;;;;;10.82;57.96;100270.46;117358;1186;21987;-71
2021/11/22 10:31:17;;;;;;;23.40;18.70;;;;;;;10.86;58.11;100266.02;117329;1185;21865;-50
2021/11/22 10:33:47;;;;;;;27.10;18.20;;;;;;;10.92;58.18;100266.63;117452;1183;22865;-71
2021/11/22 10:36:17;;;;;;;31.40;21.50;;;;;;;10.96;58.05;100268.86;117335;1184;24299;-70
2021/11/22 10:38:49;;;;;;;28.60;21.40;;;;;;;10.90;57.98;100270.52;117362;1185;21859;-52
2021/11/22 10:41:21;;;;;;;38.90;26.90;;;;;;;10.88;57.94;100275.29;117375;1183;22179;-64
2021/11/22 10:43:54;;;;;;;26.50;20.70;;;;;;;10.85;57.82;100273.58;117356;1185;22094;-50
2021/11/22 10:46:26;;;;;;;27.60;20.60;;;;;;;10.83;57.81;100269.05;117270;1185;21867;-64
2021/11/22 10:49:13;;;;;;;31.60;22.60;;;;;;;10.80;57.89;100272.60;117444;1182;23568;-53
2021/11/22 10:51:45;;;;;;;27.90;21.40;;;;;;;10.78;57.86;100275.63;117339;1176;21867;-50
2021/11/22 10:54:15;;;;;;;25.40;19.50;;;;;;;10.74;57.80;100277.96;117326;1185;22916;-64
2021/11/22 10:56:53;;;;;;;25.60;21.30;;;;;;;10.72;58.06;100276.76;117287;1177;23694;-63
2021/11/22 10:59:22;;;;;;;28.20;22.00;;;;;;;10.76;57.98;100273.02;117332;1176;21858;-63
2021/11/22 11:01:53;;;;;;;28.10;21.50;;;;;;;10.78;57.93;100274.05;117339;1182;23656;-63
2021/11/22 11:04:23;;;;;;;32.40;23.40;;;;;;;10.78;58.15;100271.23;117384;1182;23573;-64
2021/11/22 11:07:01;;;;;;;29.30;22.80;;;;;;;10.79;58.15;100270.71;117424;1182;21850;-50
2021/11/22 11:09:31;;;;;;;29.50;22.10;;;;;;;10.78;58.06;100269.30;117417;1180;22958;-64
2021/11/22 11:12:16;;;;;;;31.20;24.60;;;;;;;10.82;57.97;100262.75;117314;1185;23456;-51
2021/11/22 11:14:55;;;;;;;29.70;22.60;;;;;;;10.88;57.92;100256.70;117376;1182;21911;-51
2021/11/22 11:17:33;;;;;;;29.00;22.50;;;;;;;10.94;58.16;100254.66;117394;1185;21856;-64
2021/11/22 11:20:12;;;;;;;31.40;23.20;;;;;;;10.98;57.99;100248.46;118212;1185;21857;-51